createdAt,value
2018-05-10T12:38:51.307Z,97370
2018-05-10T12:44:12.358Z,97386
2018-05-10T12:46:45.543Z,97396
2018-05-10T12:51:56.325Z,97417
2018-05-10T12:54:31.967Z,97422
2018-05-10T12:57:06.866Z,97420
2018-05-10T12:59:41.441Z,97426
2018-05-10T13:02:14.519Z,97421
2018-05-10T13:04:50.381Z,97425
2018-05-10T13:07:24.582Z,97432
2018-05-10T13:10:00.364Z,97438
2018-05-10T13:12:34.444Z,97444
2018-05-10T13:15:09.716Z,97442
2018-05-10T13:17:50.999Z,97441
2018-05-10T13:20:23.481Z,97442
2018-05-10T13:22:56.639Z,97440
2018-05-10T13:25:33.049Z,97439
2018-05-10T13:28:07.783Z,97436
2018-05-10T13:30:42.484Z,97441
2018-05-10T13:33:15.296Z,97446
2018-05-10T13:35:48.646Z,97456
2018-05-10T13:38:21.653Z,97457
2018-05-10T13:40:54.501Z,97462
2018-05-10T13:43:27.707Z,97461
2018-05-10T13:48:44.358Z,97467
2018-05-10T13:51:16.849Z,97465
2018-05-10T13:53:49.963Z,97465
2018-05-10T13:56:23.285Z,97467
2018-05-10T13:58:56.453Z,97462
2018-05-10T14:01:28.860Z,97465
2018-05-10T14:04:02.143Z,97465
2018-05-10T14:06:36.585Z,97468
2018-05-10T14:09:10.701Z,97466
2018-05-10T14:11:45.723Z,97467
2018-05-10T14:14:18.942Z,97468
2018-05-10T14:16:52.868Z,97469
2018-05-10T14:19:30.779Z,97477
2018-05-10T14:22:05.489Z,97478
2018-05-10T14:24:41.460Z,97480
2018-05-10T14:27:14.524Z,97487
2018-05-10T14:29:47.042Z,97490
2018-05-10T14:32:20.432Z,97504
2018-05-10T14:34:54.644Z,97499
2018-05-10T14:37:27.422Z,97502
2018-05-10T14:40:00.727Z,97508
2018-05-10T14:42:34.365Z,97514
2018-05-10T14:45:21.941Z,97516
2018-05-10T14:48:05.195Z,97524
2018-05-10T14:50:39.227Z,97525
2018-05-10T14:53:11.822Z,97525
2018-05-10T14:55:48.062Z,97531
2018-05-10T14:58:28.603Z,97528
2018-05-10T15:01:01.440Z,97525
2018-05-10T15:03:35.301Z,97522
2018-05-10T15:06:20.347Z,97529
2018-05-10T15:08:53.358Z,97523
2018-05-10T15:11:26.479Z,97528
2018-05-10T15:14:00.979Z,97531
2018-05-10T15:16:36.383Z,97534
2018-05-10T15:19:13.442Z,97533
2018-05-10T15:21:48.119Z,97532
2018-05-10T15:24:22.562Z,97537
2018-05-10T15:26:55.119Z,97548
2018-05-10T15:29:28.699Z,97543
2018-05-10T15:32:07.891Z,97546
2018-05-10T15:34:39.518Z,97555
2018-05-10T15:37:11.963Z,97559
2018-05-10T15:39:45.799Z,97562
2018-05-10T15:42:21.321Z,97571
2018-05-10T15:44:56.265Z,97577
2018-05-10T15:47:29.902Z,97572
2018-05-10T15:50:03.827Z,97581
2018-05-10T15:52:42.024Z,97583
2018-05-10T15:55:19.503Z,97589
2018-05-10T15:57:52.464Z,97590
2018-05-10T16:00:24.955Z,97589
2018-05-10T16:02:57.362Z,97590
2018-05-10T16:05:29.825Z,97586
2018-05-10T16:08:03.841Z,97594
2018-05-10T16:10:36.005Z,97599
2018-05-10T16:13:08.965Z,97597
2018-05-10T16:15:41.536Z,97601
2018-05-10T16:18:14.359Z,97598
2018-05-10T16:20:47.801Z,97596
2018-05-10T16:23:21.734Z,97590
2018-05-10T16:25:55.082Z,97594
2018-05-10T16:28:37.761Z,97594
2018-05-10T16:31:10.684Z,97605
2018-05-10T16:33:42.842Z,97601
2018-05-10T16:36:16.947Z,97614
2018-05-10T16:38:50.040Z,97614
2018-05-10T16:41:23.319Z,97614
2018-05-10T16:43:56.739Z,97615
2018-05-10T16:46:31.264Z,97621
2018-05-10T16:49:05.443Z,97623
2018-05-10T16:51:37.337Z,97625
2018-05-10T16:54:10.739Z,97623
2018-05-10T16:56:43.721Z,97631
2018-05-10T16:59:17.280Z,97644
2018-05-10T17:01:49.679Z,97644
2018-05-10T17:04:26.563Z,97660
2018-05-10T17:06:59.478Z,97655
2018-05-10T17:09:34.043Z,97669
2018-05-10T17:12:08.324Z,97679
2018-05-10T17:14:41.748Z,97688
2018-05-10T17:17:18.297Z,97689
2018-05-10T17:19:50.503Z,97690
2018-05-10T17:22:24.588Z,97693
2018-05-10T17:25:01.525Z,97696
2018-05-10T17:27:37.342Z,97701
2018-05-10T17:30:13.979Z,97705
2018-05-10T17:32:48.197Z,97709
2018-05-10T17:35:23.943Z,97716
2018-05-10T17:37:57.180Z,97729
2018-05-10T17:40:29.685Z,97735
2018-05-10T17:43:02.321Z,97740
2018-05-10T17:45:40.126Z,97754
2018-05-10T17:48:17.143Z,97761
2018-05-10T17:50:50.643Z,97773
2018-05-10T17:53:24.940Z,97783
2018-05-10T17:55:59.150Z,97789
2018-05-10T17:58:33.908Z,97792
2018-05-10T18:01:06.380Z,97800
2018-05-10T18:03:39.766Z,97803
2018-05-10T18:06:17.476Z,97802
2018-05-10T18:08:52.339Z,97800
2018-05-10T18:11:25.381Z,97809
2018-05-10T20:04:55.519Z,98065
2018-05-10T20:07:30.717Z,98072
2018-05-10T20:10:04.020Z,98074
2018-05-10T20:12:36.864Z,98084
2018-05-10T20:15:11.041Z,98080
2018-05-10T20:17:44.807Z,98085
2018-05-10T20:20:17.628Z,98089
2018-05-10T20:22:56.962Z,98091
2018-05-10T20:25:31.518Z,98100
2018-05-10T20:28:03.882Z,98107
2018-05-10T20:30:41.118Z,98106
2018-05-10T20:33:14.742Z,98110
2018-05-10T20:35:49.247Z,98117
2018-05-10T20:38:21.647Z,98125
2018-05-10T20:40:56.385Z,98122
2018-05-10T21:19:00.481Z,98184
2018-05-10T21:21:35.380Z,98190
2018-05-10T21:24:08.942Z,98196
2018-05-10T21:26:43.120Z,98196
2018-05-10T21:29:15.719Z,98196
2018-05-10T21:31:49.396Z,98201
2018-05-10T21:34:23.178Z,98201
2018-05-10T21:36:56.836Z,98201
2018-05-10T21:39:34.496Z,98205
2018-05-10T21:42:07.979Z,98205
2018-05-10T21:44:42.893Z,98201
2018-05-10T21:47:16.701Z,98206
2018-05-10T21:50:06.261Z,98208
2018-05-10T21:52:39.102Z,98211
2018-05-10T21:55:13.897Z,98211
2018-05-10T21:57:48.959Z,98210
2018-05-10T22:00:23.296Z,98216
2018-05-10T22:02:59.158Z,98217
2018-05-10T22:05:41.262Z,98220
2018-05-10T22:08:14.320Z,98223
2018-05-10T22:33:00.101Z,98230
2018-05-10T22:35:32.579Z,98234
2018-05-10T22:38:05.113Z,98227
2018-05-10T22:40:37.116Z,98224
2018-05-10T22:43:10.898Z,98224
2018-05-10T22:45:43.612Z,98224
2018-05-10T22:48:18.494Z,98224
2018-05-10T22:50:55.629Z,98225
2018-05-10T22:53:30.036Z,98219
2018-05-10T22:56:03.813Z,98217
2018-05-10T22:58:36.673Z,98214
2018-05-10T23:01:11.492Z,98220
2018-05-10T23:03:44.215Z,98220
2018-05-10T23:06:17.854Z,98220
2018-05-10T23:08:51.285Z,98220
2018-05-10T23:11:24.594Z,98225
2018-05-10T23:13:59.633Z,98225
2018-05-10T23:16:46.132Z,98224
2018-05-10T23:19:19.412Z,98227
2018-05-10T23:21:53.813Z,98220
2018-05-10T23:24:26.355Z,98223
2018-05-10T23:26:58.454Z,98233
2018-05-10T23:29:31.326Z,98228
2018-05-10T23:32:04.394Z,98231
2018-05-10T23:34:36.309Z,98232
2018-05-10T23:37:08.695Z,98233
2018-05-10T23:39:41.471Z,98232
2018-05-10T23:42:14.069Z,98229
2018-05-10T23:44:51.131Z,98227
2018-05-10T23:47:23.613Z,98226
2018-05-10T23:49:55.255Z,98228
2018-05-10T23:52:33.051Z,98232
2018-05-10T23:55:05.498Z,98230
2018-05-10T23:57:38.057Z,98235
